createdAt,value
2024-02-19T00:00:57.035Z,4.50
2024-02-19T00:03:25.084Z,4.50
2024-02-19T00:05:52.904Z,4.90
2024-02-19T00:08:20.802Z,4.50
2024-02-19T00:10:48.802Z,6.00
2024-02-19T00:13:17.070Z,9.20
2024-02-19T00:15:44.936Z,6.70
2024-02-19T00:18:12.889Z,5.90
2024-02-19T00:20:40.698Z,10.00
2024-02-19T00:23:08.530Z,5.40
2024-02-19T00:25:39.980Z,5.30
2024-02-19T00:28:07.653Z,6.90
2024-02-19T00:30:35.367Z,7.20
2024-02-19T00:33:03.160Z,6.10
2024-02-19T00:35:31.581Z,6.20
2024-02-19T00:37:59.932Z,11.90
2024-02-19T00:40:27.567Z,6.10
2024-02-19T00:42:55.102Z,4.00
2024-02-19T00:45:22.750Z,4.90
2024-02-19T00:47:50.540Z,8.60
2024-02-19T00:50:18.540Z,7.10
2024-02-19T00:52:46.211Z,4.70
2024-02-19T00:55:13.782Z,5.20
2024-02-19T00:57:41.546Z,7.20
2024-02-19T01:00:09.798Z,7.00
2024-02-19T01:02:37.500Z,5.10
2024-02-19T01:05:06.606Z,6.20
2024-02-19T01:07:34.327Z,7.00
2024-02-19T01:10:02.065Z,4.30
2024-02-19T01:12:29.954Z,4.40
2024-02-19T01:14:57.453Z,5.60
2024-02-19T01:17:25.564Z,6.70
2024-02-19T01:19:54.096Z,6.20
2024-02-19T01:22:21.921Z,7.40
2024-02-19T01:24:50.385Z,6.50
2024-02-19T01:27:17.977Z,3.10
2024-02-19T01:29:47.073Z,5.90
2024-02-19T01:32:14.941Z,4.40
2024-02-19T01:34:42.675Z,6.50
2024-02-19T01:37:10.733Z,5.90
2024-02-19T01:39:38.492Z,5.30
2024-02-19T01:42:06.611Z,5.80
2024-02-19T01:44:38.534Z,4.00
2024-02-19T01:47:06.136Z,4.80
2024-02-19T01:49:34.744Z,6.70
2024-02-19T01:52:02.520Z,5.40
2024-02-19T01:54:30.255Z,3.20
2024-02-19T01:56:57.921Z,5.10
2024-02-19T01:59:25.470Z,6.80
2024-02-19T02:01:54.785Z,6.00
2024-02-19T02:04:22.587Z,3.10
2024-02-19T02:06:50.293Z,4.50
2024-02-19T02:09:17.923Z,4.70
2024-02-19T02:11:45.526Z,7.00
2024-02-19T02:14:13.193Z,5.80
2024-02-19T02:16:40.748Z,6.70
2024-02-19T02:19:08.511Z,5.10
2024-02-19T02:21:41.694Z,6.40
2024-02-19T02:24:09.467Z,5.70
2024-02-19T02:26:41.484Z,6.10
2024-02-19T02:29:09.044Z,4.50
2024-02-19T02:31:36.655Z,7.30
2024-02-19T02:34:06.579Z,3.70
2024-02-19T02:36:34.740Z,5.90
2024-02-19T02:39:02.781Z,3.50
2024-02-19T02:41:31.500Z,4.90
2024-02-19T02:43:59.268Z,3.60
2024-02-19T02:46:27.045Z,4.00
2024-02-19T02:48:55.127Z,5.20
2024-02-19T02:51:22.970Z,7.10
2024-02-19T02:53:50.733Z,8.90
2024-02-19T02:56:21.788Z,4.60
2024-02-19T02:58:49.545Z,5.00
2024-02-19T03:01:18.952Z,4.60
2024-02-19T03:03:46.804Z,4.00
2024-02-19T03:06:14.678Z,4.00
2024-02-19T03:08:42.547Z,2.60
2024-02-19T03:11:10.345Z,3.70
2024-02-19T03:13:38.893Z,4.70
2024-02-19T03:16:07.030Z,4.30
2024-02-19T03:18:38.600Z,3.70
2024-02-19T03:21:09.440Z,3.20
2024-02-19T03:23:37.123Z,3.50
2024-02-19T03:26:05.942Z,3.60
2024-02-19T03:28:34.496Z,3.60
2024-02-19T03:31:02.221Z,3.70
2024-02-19T03:33:30.003Z,3.50
2024-02-19T03:35:57.891Z,3.00
2024-02-19T03:38:26.006Z,5.90
2024-02-19T03:40:53.733Z,4.00
2024-02-19T03:43:21.443Z,4.10
2024-02-19T03:45:52.012Z,7.40
2024-02-19T03:48:19.615Z,4.90
2024-02-19T03:50:47.446Z,5.30
2024-02-19T03:53:15.213Z,2.80
2024-02-19T03:55:42.908Z,4.10
2024-02-19T03:58:10.671Z,5.80
2024-02-19T04:00:38.292Z,6.30
2024-02-19T04:03:06.576Z,6.90
2024-02-19T04:05:34.798Z,8.50
2024-02-19T04:08:02.421Z,6.70
2024-02-19T04:10:30.078Z,8.10
2024-02-19T04:12:57.645Z,8.50
2024-02-19T04:15:25.301Z,5.60
2024-02-19T04:17:52.894Z,5.30
2024-02-19T04:20:20.884Z,6.80
2024-02-19T04:22:48.594Z,9.50
2024-02-19T04:25:16.426Z,4.80
2024-02-19T04:27:44.370Z,4.60
2024-02-19T04:30:13.424Z,8.30
2024-02-19T04:32:41.183Z,9.20
2024-02-19T04:35:09.646Z,7.60
2024-02-19T04:37:37.432Z,7.60
2024-02-19T04:40:05.934Z,12.20
2024-02-19T04:42:34.560Z,6.30
2024-02-19T04:45:02.180Z,8.00
2024-02-19T04:47:29.832Z,14.80
2024-02-19T04:49:57.672Z,7.10
2024-02-19T04:52:25.539Z,8.80
2024-02-19T04:54:53.253Z,6.00
2024-02-19T04:57:21.595Z,6.40
2024-02-19T04:59:49.161Z,4.10
2024-02-19T05:02:16.938Z,6.30
2024-02-19T05:04:44.804Z,3.70
2024-02-19T05:07:12.638Z,5.80
2024-02-19T05:09:40.738Z,4.90
2024-02-19T05:12:08.543Z,7.00
2024-02-19T05:14:36.156Z,6.20
2024-02-19T05:17:04.689Z,5.40
2024-02-19T05:19:32.435Z,5.70
2024-02-19T05:22:00.221Z,5.50
2024-02-19T05:24:27.928Z,6.30
2024-02-19T05:26:55.611Z,5.70
2024-02-19T05:29:23.768Z,6.50
2024-02-19T05:31:53.043Z,5.60
2024-02-19T05:34:21.175Z,6.80
2024-02-19T05:36:48.888Z,10.50
2024-02-19T05:39:16.670Z,6.20
2024-02-19T05:41:45.065Z,8.50
2024-02-19T05:44:12.734Z,4.80
2024-02-19T05:46:40.373Z,6.70
2024-02-19T05:49:08.065Z,8.80
2024-02-19T05:51:35.799Z,4.30
2024-02-19T05:54:03.485Z,5.70
2024-02-19T05:56:31.135Z,10.50
2024-02-19T05:58:59.052Z,7.50
2024-02-19T06:01:26.924Z,5.00
2024-02-19T06:03:54.780Z,8.20
2024-02-19T06:06:22.527Z,5.00
2024-02-19T06:08:50.263Z,9.70
2024-02-19T06:11:18.078Z,7.10
2024-02-19T06:13:45.727Z,6.90
2024-02-19T06:16:13.256Z,6.00
2024-02-19T06:18:40.977Z,4.80
2024-02-19T06:21:08.744Z,5.70
2024-02-19T06:23:36.333Z,5.00
2024-02-19T06:26:04.047Z,7.20
2024-02-19T06:28:31.609Z,6.50
2024-02-19T06:30:59.247Z,7.50
2024-02-19T06:33:27.179Z,5.30
2024-02-19T06:35:54.793Z,9.70
2024-02-19T06:38:22.612Z,6.50
2024-02-19T06:40:50.280Z,4.60
2024-02-19T06:43:20.077Z,4.90
2024-02-19T06:45:47.842Z,5.40
2024-02-19T06:48:15.697Z,5.60
2024-02-19T06:51:32.332Z,5.40
2024-02-19T06:54:00.390Z,5.40
2024-02-19T06:56:28.340Z,3.90
2024-02-19T06:58:56.042Z,4.10
2024-02-19T07:01:24.160Z,5.80
2024-02-19T07:03:52.075Z,3.70
2024-02-19T07:06:19.985Z,4.30
2024-02-19T07:08:48.643Z,4.60
2024-02-19T07:11:16.327Z,3.40
2024-02-19T07:13:44.698Z,4.10
2024-02-19T07:16:12.363Z,4.00
2024-02-19T07:18:40.138Z,4.30
2024-02-19T07:21:07.862Z,3.70
2024-02-19T07:23:35.657Z,4.20
2024-02-19T07:26:03.339Z,4.40
2024-02-19T07:28:31.172Z,3.60
2024-02-19T07:30:58.881Z,4.70
2024-02-19T07:33:28.984Z,4.00
2024-02-19T07:35:57.014Z,2.90
2024-02-19T07:38:24.794Z,4.10
2024-02-19T07:40:52.834Z,5.30
2024-02-19T07:43:20.598Z,3.90
2024-02-19T07:45:48.546Z,3.00
2024-02-19T07:48:16.263Z,5.70
2024-02-19T07:50:43.984Z,1.80
2024-02-19T07:53:12.513Z,4.10
2024-02-19T07:55:41.223Z,2.90
2024-02-19T07:58:09.726Z,2.60
2024-02-19T08:00:37.325Z,2.90
2024-02-19T08:03:05.094Z,5.90
2024-02-19T08:05:32.785Z,2.80
2024-02-19T08:08:00.610Z,4.00
2024-02-19T08:10:28.420Z,3.00
2024-02-19T08:12:56.274Z,2.80
2024-02-19T08:15:25.237Z,2.40
2024-02-19T08:17:52.890Z,2.30
2024-02-19T08:20:20.665Z,1.80
2024-02-19T08:22:48.238Z,2.20
2024-02-19T08:25:16.529Z,4.70
2024-02-19T08:27:44.258Z,3.30
2024-02-19T08:30:12.256Z,4.30
2024-02-19T08:32:39.805Z,2.60
2024-02-19T08:35:08.141Z,2.40
2024-02-19T08:37:36.008Z,1.90
2024-02-19T08:40:04.876Z,2.50
2024-02-19T08:42:32.759Z,3.20
2024-02-19T08:45:00.405Z,3.50
2024-02-19T08:47:28.092Z,3.60
2024-02-19T08:49:55.923Z,1.90
2024-02-19T08:52:23.850Z,3.90
2024-02-19T08:54:51.657Z,3.80
2024-02-19T08:57:19.199Z,2.30
2024-02-19T08:59:47.485Z,2.80
2024-02-19T09:02:15.281Z,3.30
2024-02-19T09:04:44.093Z,2.90
2024-02-19T09:07:13.986Z,1.60
2024-02-19T09:09:45.711Z,3.10
2024-02-19T09:12:13.556Z,1.60
2024-02-19T09:14:41.215Z,1.30
2024-02-19T09:17:08.780Z,2.60
2024-02-19T09:19:36.705Z,2.30
2024-02-19T09:22:04.744Z,1.50
2024-02-19T09:24:33.107Z,2.60
2024-02-19T09:27:00.809Z,2.30
2024-02-19T09:29:29.822Z,2.30
2024-02-19T09:31:58.456Z,1.30
2024-02-19T09:34:26.149Z,0.80
2024-02-19T09:36:53.942Z,0.20
2024-02-19T09:39:21.630Z,1.10
2024-02-19T09:41:49.291Z,1.00
2024-02-19T09:44:16.961Z,0.60
2024-02-19T09:46:46.613Z,0.00
2024-02-19T09:49:14.326Z,1.20
2024-02-19T09:51:46.298Z,0.50
2024-02-19T09:54:14.464Z,0.60
2024-02-19T09:56:42.178Z,0.40
2024-02-19T09:59:09.788Z,0.40
2024-02-19T10:01:37.527Z,0.80
2024-02-19T10:04:08.573Z,0.50
2024-02-19T10:06:37.783Z,0.60
2024-02-19T10:09:08.655Z,0.00
2024-02-19T10:11:36.986Z,1.00
2024-02-19T10:14:05.606Z,0.80
2024-02-19T10:16:33.543Z,0.70
2024-02-19T10:19:08.456Z,0.60
2024-02-19T10:21:36.477Z,1.00
2024-02-19T10:24:04.622Z,0.30
2024-02-19T10:26:32.577Z,0.90
2024-02-19T10:29:00.137Z,0.30
2024-02-19T10:31:27.831Z,0.60
2024-02-19T10:33:55.958Z,1.20
2024-02-19T10:36:24.554Z,0.30
2024-02-19T10:38:52.480Z,0.30
2024-02-19T10:41:22.417Z,0.90
2024-02-19T10:43:51.008Z,0.90
2024-02-19T10:46:22.017Z,1.90
2024-02-19T10:48:51.264Z,2.80
2024-02-19T10:51:23.683Z,1.10
2024-02-19T10:54:02.298Z,2.30
2024-02-19T10:56:41.227Z,1.40
2024-02-19T10:59:09.459Z,0.60
2024-02-19T11:01:48.840Z,1.80
2024-02-19T11:04:17.247Z,0.50
2024-02-19T11:06:56.437Z,0.50
2024-02-19T11:09:30.490Z,1.30
2024-02-19T11:12:00.351Z,2.10
2024-02-19T11:14:30.283Z,0.90
2024-02-19T11:17:00.828Z,1.80
2024-02-19T11:19:29.188Z,0.60
2024-02-19T11:22:09.779Z,3.10
2024-02-19T11:24:37.682Z,1.70
2024-02-19T11:27:06.315Z,1.10
2024-02-19T11:29:43.292Z,3.00
2024-02-19T11:32:20.778Z,1.70
2024-02-19T11:34:51.742Z,1.60
2024-02-19T11:37:20.364Z,2.10
2024-02-19T11:39:48.400Z,2.10
2024-02-19T11:42:17.028Z,1.60
2024-02-19T11:44:46.771Z,3.30
2024-02-19T11:47:15.839Z,1.50
2024-02-19T11:49:44.300Z,2.20
2024-02-19T11:52:13.497Z,1.90
2024-02-19T11:54:42.333Z,2.40
2024-02-19T11:57:10.859Z,1.80
2024-02-19T11:59:38.802Z,1.40
2024-02-19T12:02:08.005Z,1.40
2024-02-19T12:04:39.107Z,1.80
2024-02-19T12:07:10.638Z,1.90
2024-02-19T12:09:38.828Z,2.10
2024-02-19T12:12:06.934Z,8.50
2024-02-19T12:14:34.810Z,3.10
2024-02-19T12:17:04.893Z,2.90
2024-02-19T12:19:33.044Z,0.80
2024-02-19T12:22:01.088Z,3.90
2024-02-19T12:24:28.738Z,2.00
2024-02-19T12:26:56.498Z,1.10
2024-02-19T12:29:24.154Z,1.00
2024-02-19T12:31:51.939Z,3.40
2024-02-19T12:34:19.667Z,1.60
2024-02-19T12:36:47.719Z,1.30
2024-02-19T12:39:15.525Z,0.70
2024-02-19T12:41:45.005Z,3.50
2024-02-19T12:44:12.994Z,1.20
2024-02-19T12:46:42.242Z,1.60
2024-02-19T12:49:10.281Z,1.00
2024-02-19T12:51:38.955Z,1.00
2024-02-19T12:54:06.851Z,3.20
2024-02-19T12:56:34.482Z,0.90
2024-02-19T12:59:02.142Z,1.30
2024-02-19T13:01:32.938Z,3.20
2024-02-19T13:04:03.055Z,2.90
2024-02-19T13:06:31.670Z,3.60
2024-02-19T13:09:00.252Z,2.70
2024-02-19T13:11:29.405Z,1.80
2024-02-19T13:13:58.675Z,3.00
2024-02-19T13:16:26.576Z,2.80
2024-02-19T13:18:54.564Z,3.80
2024-02-19T13:21:22.388Z,4.70
2024-02-19T13:23:51.141Z,2.40
2024-02-19T13:26:19.133Z,3.30
2024-02-19T13:28:46.802Z,3.40
2024-02-19T13:31:14.628Z,3.10
2024-02-19T13:33:43.281Z,2.90
2024-02-19T13:36:11.022Z,4.30
2024-02-19T13:38:39.793Z,3.90
2024-02-19T13:41:07.949Z,3.40
2024-02-19T13:43:35.835Z,3.80
2024-02-19T13:46:05.355Z,4.10
2024-02-19T13:48:34.495Z,4.10
2024-02-19T13:51:02.770Z,3.80
2024-02-19T13:53:31.329Z,4.50
2024-02-19T13:55:59.794Z,3.80
2024-02-19T13:58:29.061Z,3.00
2024-02-19T14:00:59.377Z,3.30
2024-02-19T14:03:27.599Z,8.50
2024-02-19T14:05:55.403Z,3.30
2024-02-19T14:08:23.154Z,3.90
2024-02-19T14:10:53.309Z,4.30
2024-02-19T14:13:21.386Z,4.10
2024-02-19T14:15:49.170Z,3.10
2024-02-19T14:18:17.347Z,4.30
2024-02-19T14:20:45.145Z,2.50
2024-02-19T14:23:13.944Z,4.40
2024-02-19T14:25:43.708Z,5.00
2024-02-19T14:28:11.818Z,3.70
2024-02-19T14:30:39.584Z,4.00
2024-02-19T14:33:07.522Z,3.70
2024-02-19T14:35:35.417Z,3.50
2024-02-19T14:38:04.340Z,3.10
2024-02-19T14:40:38.229Z,3.30
2024-02-19T14:43:06.181Z,3.70
2024-02-19T14:45:34.083Z,4.20
2024-02-19T14:48:02.620Z,4.10
2024-02-19T14:50:30.651Z,4.40
2024-02-19T14:52:58.616Z,3.20
2024-02-19T14:55:26.393Z,5.00
2024-02-19T14:57:54.882Z,2.10
2024-02-19T15:00:22.974Z,4.50
2024-02-19T15:02:52.147Z,5.40
2024-02-19T15:05:20.615Z,5.30
2024-02-19T15:07:55.746Z,4.20
2024-02-19T15:10:29.233Z,2.00
2024-02-19T15:12:58.050Z,5.50
2024-02-19T15:15:26.461Z,4.00
2024-02-19T15:17:54.361Z,2.10
2024-02-19T15:20:23.195Z,3.40
2024-02-19T15:22:51.900Z,1.60
2024-02-19T15:25:20.780Z,7.30
2024-02-19T15:27:49.517Z,2.10
2024-02-19T15:30:17.233Z,2.20
2024-02-19T15:32:44.940Z,4.70
2024-02-19T15:35:13.783Z,2.20
2024-02-19T15:37:41.860Z,1.80
2024-02-19T15:40:10.978Z,3.50
2024-02-19T15:42:39.388Z,4.20
2024-02-19T15:45:08.050Z,3.10
2024-02-19T15:47:35.804Z,3.60
2024-02-19T15:50:05.145Z,2.30
2024-02-19T15:52:33.092Z,4.80
2024-02-19T15:55:00.789Z,4.20
2024-02-19T15:57:29.432Z,6.40
2024-02-19T15:59:57.069Z,2.50
2024-02-19T16:02:24.734Z,3.20
2024-02-19T16:04:52.477Z,3.50
2024-02-19T16:07:23.445Z,2.80
2024-02-19T16:09:52.786Z,2.70
2024-02-19T16:12:20.708Z,3.30
2024-02-19T16:14:48.693Z,5.60
2024-02-19T16:17:17.839Z,4.60
2024-02-19T16:19:46.754Z,4.00
2024-02-19T16:22:16.173Z,6.40
2024-02-19T16:24:43.869Z,3.60
2024-02-19T16:27:11.652Z,6.00
2024-02-19T16:29:39.208Z,3.40
2024-02-19T16:32:07.422Z,5.50
2024-02-19T16:34:35.357Z,6.00
2024-02-19T16:37:03.090Z,4.60
2024-02-19T16:39:30.702Z,5.70
2024-02-19T16:41:58.380Z,4.30
2024-02-19T16:44:26.690Z,5.50
2024-02-19T16:46:54.436Z,5.30
2024-02-19T16:49:22.463Z,5.10
2024-02-19T16:51:50.222Z,3.50
2024-02-19T16:54:21.424Z,3.40
2024-02-19T16:56:49.489Z,2.60
2024-02-19T16:59:17.342Z,2.90
2024-02-19T17:01:46.975Z,2.20
2024-02-19T17:04:15.066Z,1.80
2024-02-19T17:06:45.164Z,2.60
2024-02-19T17:09:13.112Z,4.20
2024-02-19T17:11:40.944Z,1.10
2024-02-19T17:14:09.377Z,1.30
2024-02-19T17:16:37.230Z,1.80
2024-02-19T17:19:05.868Z,1.30
2024-02-19T17:21:33.479Z,1.20
2024-02-19T17:24:01.195Z,1.40
2024-02-19T17:26:29.288Z,2.10
2024-02-19T17:28:56.909Z,1.50
2024-02-19T17:31:28.448Z,3.50
2024-02-19T17:33:56.350Z,4.60
2024-02-19T17:36:24.134Z,3.50
2024-02-19T17:38:51.761Z,5.00
2024-02-19T17:41:19.485Z,5.70
2024-02-19T17:43:48.591Z,7.40
2024-02-19T17:46:17.129Z,4.30
2024-02-19T17:48:46.319Z,5.80
2024-02-19T17:51:20.645Z,4.40
2024-02-19T17:53:52.853Z,6.40
2024-02-19T17:56:20.362Z,6.20
2024-02-19T17:58:48.096Z,4.20
2024-02-19T18:01:15.996Z,2.60
2024-02-19T18:03:44.926Z,4.70
2024-02-19T18:06:13.413Z,3.70
2024-02-19T18:08:40.984Z,3.20
2024-02-19T18:11:12.508Z,3.70
2024-02-19T18:13:40.264Z,3.30
2024-02-19T18:16:08.110Z,4.80
2024-02-19T18:18:36.003Z,2.20
2024-02-19T18:21:04.716Z,2.70
2024-02-19T18:23:33.191Z,3.50
2024-02-19T18:26:02.332Z,2.00
2024-02-19T18:28:31.860Z,1.50
2024-02-19T18:31:02.015Z,2.30
2024-02-19T18:33:29.897Z,2.60
2024-02-19T18:35:57.490Z,2.70
2024-02-19T18:38:25.212Z,4.10
2024-02-19T18:40:54.451Z,2.20
2024-02-19T18:43:22.797Z,3.10
2024-02-19T18:45:50.565Z,3.40
2024-02-19T18:48:18.417Z,2.20
2024-02-19T18:50:46.118Z,2.20
2024-02-19T18:53:13.842Z,3.30
2024-02-19T18:55:41.706Z,3.70
2024-02-19T18:58:09.412Z,2.40
2024-02-19T19:00:37.292Z,1.50
2024-02-19T19:03:05.272Z,1.20
2024-02-19T19:05:35.991Z,2.20
2024-02-19T19:20:11.536Z,4.10
2024-02-19T19:22:39.471Z,2.80
2024-02-19T19:25:08.112Z,4.90
2024-02-19T19:27:35.898Z,2.70
2024-02-19T19:30:04.024Z,2.90
2024-02-19T19:32:36.383Z,4.80
2024-02-19T19:35:04.984Z,2.90
2024-02-19T19:37:33.020Z,3.50
2024-02-19T19:40:02.444Z,2.80
2024-02-19T19:42:30.993Z,2.30
2024-02-19T19:44:58.642Z,2.10
2024-02-19T19:47:26.290Z,1.80
2024-02-19T19:49:54.052Z,5.00
2024-02-19T19:52:21.864Z,4.30
2024-02-19T19:54:49.649Z,2.40
2024-02-19T19:57:17.288Z,2.40
2024-02-19T19:59:49.891Z,2.40
2024-02-19T20:02:18.578Z,2.80
2024-02-19T20:04:50.282Z,3.50
2024-02-19T20:07:18.041Z,4.00
2024-02-19T20:09:47.379Z,4.70
2024-02-19T20:12:15.376Z,2.40
2024-02-19T20:14:43.092Z,4.60
2024-02-19T20:17:10.744Z,3.00
2024-02-19T20:19:38.501Z,3.90
2024-02-19T20:22:06.338Z,3.70
2024-02-19T20:24:34.003Z,3.20
2024-02-19T20:27:02.476Z,2.50
2024-02-19T20:29:30.184Z,5.10
2024-02-19T20:32:02.972Z,3.70
2024-02-19T20:34:31.278Z,5.50
2024-02-19T20:36:59.068Z,4.40
2024-02-19T20:39:26.768Z,6.70
2024-02-19T20:41:54.542Z,5.20
2024-02-19T20:44:22.308Z,7.10
2024-02-19T20:46:50.066Z,5.00
2024-02-19T20:49:17.869Z,7.10
2024-02-19T20:51:46.389Z,5.40
2024-02-19T20:54:14.394Z,7.00
2024-02-19T20:56:44.879Z,4.40
2024-02-19T20:59:12.625Z,6.50
2024-02-19T21:01:42.589Z,7.20
2024-02-19T21:04:10.717Z,6.60
2024-02-19T21:06:38.486Z,4.60
2024-02-19T21:09:07.223Z,4.80
2024-02-19T21:11:34.911Z,6.30
2024-02-19T21:14:04.225Z,6.70
2024-02-19T21:16:32.139Z,4.40
2024-02-19T21:19:00.847Z,4.80
2024-02-19T21:21:34.554Z,7.10
2024-02-19T21:24:04.018Z,6.00
2024-02-19T21:26:32.425Z,6.70
2024-02-19T21:29:00.292Z,5.40
2024-02-19T21:31:28.411Z,7.50
2024-02-19T21:33:56.418Z,7.30
2024-02-19T21:36:24.129Z,8.20
2024-02-19T21:38:51.870Z,4.70
2024-02-19T21:41:20.251Z,5.90
2024-02-19T21:43:47.805Z,5.70
2024-02-19T21:46:15.469Z,4.80
2024-02-19T21:48:43.976Z,4.70
2024-02-19T21:51:12.117Z,5.10
2024-02-19T21:53:39.783Z,6.30
2024-02-19T21:56:07.988Z,6.40
2024-02-19T21:58:35.593Z,4.10
2024-02-19T22:01:03.375Z,5.20
2024-02-19T22:03:32.290Z,5.10
2024-02-19T22:05:59.970Z,8.40
2024-02-19T22:08:27.954Z,11.10
2024-02-19T22:10:55.543Z,6.30
2024-02-19T22:13:23.372Z,9.70
2024-02-19T22:15:55.542Z,5.60
2024-02-19T22:18:25.708Z,4.00
2024-02-19T22:20:53.796Z,5.30
2024-02-19T22:23:21.458Z,4.20
2024-02-19T22:25:49.619Z,6.40
2024-02-19T22:28:17.547Z,7.20
2024-02-19T22:30:45.375Z,4.30
2024-02-19T22:33:13.191Z,5.80
2024-02-19T22:35:41.049Z,5.30
2024-02-19T22:38:08.869Z,4.10
2024-02-19T22:40:36.602Z,8.10
2024-02-19T22:43:10.657Z,5.20
2024-02-19T22:45:38.790Z,5.30
2024-02-19T22:48:07.085Z,4.90
2024-02-19T22:50:35.801Z,7.30
2024-02-19T22:53:04.371Z,5.30
2024-02-19T22:55:32.402Z,4.80
2024-02-19T22:58:00.434Z,6.60
2024-02-19T23:00:29.100Z,5.70
2024-02-19T23:02:56.906Z,5.30
2024-02-19T23:05:25.551Z,4.90
2024-02-19T23:07:55.226Z,5.80
2024-02-19T23:10:23.471Z,4.70
2024-02-19T23:12:51.841Z,7.60
2024-02-19T23:15:20.297Z,8.00
2024-02-19T23:17:47.855Z,5.60
2024-02-19T23:20:16.046Z,4.90
2024-02-19T23:22:47.366Z,4.90
2024-02-19T23:25:15.354Z,4.70
2024-02-19T23:27:43.010Z,5.50
2024-02-19T23:30:11.744Z,7.90
2024-02-19T23:32:39.580Z,5.30
2024-02-19T23:35:08.467Z,4.50
2024-02-19T23:37:36.965Z,6.60
2024-02-19T23:40:16.226Z,4.80
2024-02-19T23:42:47.369Z,6.60
2024-02-19T23:45:15.126Z,4.70
2024-02-19T23:47:43.169Z,4.10
2024-02-19T23:50:11.274Z,6.90
2024-02-19T23:52:41.141Z,4.70
2024-02-19T23:55:10.623Z,7.10
2024-02-19T23:57:41.253Z,5.10
